sensor_id;sensor_type;location;lat;lon;timestamp;P1;durP1;ratioP1;P2;durP2;ratioP2
20038;SDS011;21737;42.868;25.320;2024-01-11T00:01:15;8.00;;;2.03;;
20038;SDS011;21737;42.868;25.320;2024-01-11T00:03:41;4.63;;;2.78;;
20038;SDS011;21737;42.868;25.320;2024-01-11T00:06:09;5.95;;;2.55;;
20038;SDS011;21737;42.868;25.320;2024-01-11T00:08:35;6.43;;;3.08;;
20038;SDS011;21737;42.868;25.320;2024-01-11T00:11:01;6.85;;;2.58;;
20038;SDS011;21737;42.868;25.320;2024-01-11T00:13:27;7.13;;;3.13;;
20038;SDS011;21737;42.868;25.320;2024-01-11T00:15:53;8.77;;;4.03;;
20038;SDS011;21737;42.868;25.320;2024-01-11T00:18:19;8.93;;;3.67;;
20038;SDS011;21737;42.868;25.320;2024-01-11T00:20:45;5.63;;;2.08;;
20038;SDS011;21737;42.868;25.320;2024-01-11T00:23:11;5.15;;;2.38;;
20038;SDS011;21737;42.868;25.320;2024-01-11T00:25:37;4.20;;;1.98;;
20038;SDS011;21737;42.868;25.320;2024-01-11T00:28:03;3.42;;;2.22;;
20038;SDS011;21737;42.868;25.320;2024-01-11T00:30:31;2.33;;;1.10;;
20038;SDS011;21737;42.868;25.320;2024-01-11T00:32:57;2.22;;;1.30;;
20038;SDS011;21737;42.868;25.320;2024-01-11T00:35:23;5.30;;;2.40;;
20038;SDS011;21737;42.868;25.320;2024-01-11T00:37:50;5.18;;;2.13;;
20038;SDS011;21737;42.868;25.320;2024-01-11T00:40:16;3.40;;;1.65;;
20038;SDS011;21737;42.868;25.320;2024-01-11T00:42:42;3.90;;;1.52;;
20038;SDS011;21737;42.868;25.320;2024-01-11T00:45:08;4.57;;;2.08;;
20038;SDS011;21737;42.868;25.320;2024-01-11T00:47:34;4.43;;;1.27;;
20038;SDS011;21737;42.868;25.320;2024-01-11T00:50:01;1.33;;;0.70;;
20038;SDS011;21737;42.868;25.320;2024-01-11T00:52:27;3.10;;;1.23;;
20038;SDS011;21737;42.868;25.320;2024-01-11T00:54:53;7.57;;;2.38;;
20038;SDS011;21737;42.868;25.320;2024-01-11T00:57:18;2.90;;;1.15;;
20038;SDS011;21737;42.868;25.320;2024-01-11T00:59:44;3.72;;;1.60;;
20038;SDS011;21737;42.868;25.320;2024-01-11T01:02:10;5.10;;;2.33;;
20038;SDS011;21737;42.868;25.320;2024-01-11T01:04:39;1.45;;;1.08;;
20038;SDS011;21737;42.868;25.320;2024-01-11T01:07:05;2.20;;;1.38;;
20038;SDS011;21737;42.868;25.320;2024-01-11T01:09:31;1.10;;;0.73;;
20038;SDS011;21737;42.868;25.320;2024-01-11T01:11:57;3.05;;;1.50;;
20038;SDS011;21737;42.868;25.320;2024-01-11T01:14:25;3.05;;;1.85;;
20038;SDS011;21737;42.868;25.320;2024-01-11T01:16:52;3.60;;;1.73;;
20038;SDS011;21737;42.868;25.320;2024-01-11T01:19:18;6.50;;;1.95;;
20038;SDS011;21737;42.868;25.320;2024-01-11T01:21:44;2.30;;;0.80;;
20038;SDS011;21737;42.868;25.320;2024-01-11T01:24:10;3.00;;;1.45;;
20038;SDS011;21737;42.868;25.320;2024-01-11T01:26:36;3.92;;;2.05;;
20038;SDS011;21737;42.868;25.320;2024-01-11T01:29:02;2.78;;;1.38;;
20038;SDS011;21737;42.868;25.320;2024-01-11T01:31:27;1.17;;;0.65;;
20038;SDS011;21737;42.868;25.320;2024-01-11T01:33:53;8.40;;;2.08;;
20038;SDS011;21737;42.868;25.320;2024-01-11T01:36:19;2.45;;;0.70;;
20038;SDS011;21737;42.868;25.320;2024-01-11T01:38:45;2.83;;;0.60;;
20038;SDS011;21737;42.868;25.320;2024-01-11T01:41:14;3.22;;;1.38;;
20038;SDS011;21737;42.868;25.320;2024-01-11T01:43:39;3.22;;;1.55;;
20038;SDS011;21737;42.868;25.320;2024-01-11T01:46:05;7.85;;;1.80;;
20038;SDS011;21737;42.868;25.320;2024-01-11T01:48:35;3.53;;;1.90;;
20038;SDS011;21737;42.868;25.320;2024-01-11T01:51:02;2.10;;;1.35;;
20038;SDS011;21737;42.868;25.320;2024-01-11T01:53:28;0.63;;;0.55;;
20038;SDS011;21737;42.868;25.320;2024-01-11T01:55:55;1.90;;;1.13;;
20038;SDS011;21737;42.868;25.320;2024-01-11T01:58:22;5.07;;;1.65;;
20038;SDS011;21737;42.868;25.320;2024-01-11T02:00:48;5.25;;;1.88;;
20038;SDS011;21737;42.868;25.320;2024-01-11T02:03:17;4.78;;;1.48;;
20038;SDS011;21737;42.868;25.320;2024-01-11T02:05:45;3.30;;;1.08;;
20038;SDS011;21737;42.868;25.320;2024-01-11T02:08:12;4.78;;;1.48;;
20038;SDS011;21737;42.868;25.320;2024-01-11T02:10:42;4.20;;;2.85;;
20038;SDS011;21737;42.868;25.320;2024-01-11T02:13:08;0.75;;;0.35;;
20038;SDS011;21737;42.868;25.320;2024-01-11T02:15:34;2.90;;;0.88;;
20038;SDS011;21737;42.868;25.320;2024-01-11T02:18:00;3.13;;;0.95;;
20038;SDS011;21737;42.868;25.320;2024-01-11T02:20:26;2.80;;;1.65;;
20038;SDS011;21737;42.868;25.320;2024-01-11T02:22:53;1.10;;;0.73;;
20038;SDS011;21737;42.868;25.320;2024-01-11T02:25:24;8.90;;;1.67;;
20038;SDS011;21737;42.868;25.320;2024-01-11T02:27:50;1.35;;;0.50;;
20038;SDS011;21737;42.868;25.320;2024-01-11T02:30:16;1.77;;;1.08;;
20038;SDS011;21737;42.868;25.320;2024-01-11T02:32:45;3.35;;;1.38;;
20038;SDS011;21737;42.868;25.320;2024-01-11T02:35:16;3.42;;;1.63;;
20038;SDS011;21737;42.868;25.320;2024-01-11T02:37:43;2.15;;;1.10;;
20038;SDS011;21737;42.868;25.320;2024-01-11T02:40:11;2.00;;;0.82;;
20038;SDS011;21737;42.868;25.320;2024-01-11T02:42:38;1.88;;;1.20;;
20038;SDS011;21737;42.868;25.320;2024-01-11T02:45:04;1.60;;;1.00;;
20038;SDS011;21737;42.868;25.320;2024-01-11T02:47:30;4.05;;;1.52;;
20038;SDS011;21737;42.868;25.320;2024-01-11T02:49:57;1.77;;;0.85;;
20038;SDS011;21737;42.868;25.320;2024-01-11T02:52:23;1.77;;;1.10;;
20038;SDS011;21737;42.868;25.320;2024-01-11T02:54:51;2.60;;;0.77;;
20038;SDS011;21737;42.868;25.320;2024-01-11T02:57:17;2.55;;;1.27;;
20038;SDS011;21737;42.868;25.320;2024-01-11T02:59:43;2.05;;;0.45;;
20038;SDS011;21737;42.868;25.320;2024-01-11T03:02:10;3.17;;;1.58;;
20038;SDS011;21737;42.868;25.320;2024-01-11T03:04:37;1.95;;;1.38;;
20038;SDS011;21737;42.868;25.320;2024-01-11T03:07:03;6.03;;;1.88;;
20038;SDS011;21737;42.868;25.320;2024-01-11T03:09:30;3.03;;;0.95;;
20038;SDS011;21737;42.868;25.320;2024-01-11T03:11:56;3.00;;;1.27;;
20038;SDS011;21737;42.868;25.320;2024-01-11T03:14:22;2.53;;;1.27;;
20038;SDS011;21737;42.868;25.320;2024-01-11T03:16:48;2.97;;;1.13;;
20038;SDS011;21737;42.868;25.320;2024-01-11T03:19:14;4.50;;;1.95;;
20038;SDS011;21737;42.868;25.320;2024-01-11T03:21:42;5.10;;;1.23;;
20038;SDS011;21737;42.868;25.320;2024-01-11T03:24:08;3.50;;;1.60;;
20038;SDS011;21737;42.868;25.320;2024-01-11T03:26:33;5.25;;;1.67;;
20038;SDS011;21737;42.868;25.320;2024-01-11T03:28:59;2.55;;;1.23;;
20038;SDS011;21737;42.868;25.320;2024-01-11T03:31:25;2.03;;;1.05;;
20038;SDS011;21737;42.868;25.320;2024-01-11T03:33:51;1.58;;;0.52;;
20038;SDS011;21737;42.868;25.320;2024-01-11T03:36:16;3.40;;;1.45;;
20038;SDS011;21737;42.868;25.320;2024-01-11T03:38:42;2.25;;;1.30;;
20038;SDS011;21737;42.868;25.320;2024-01-11T03:41:08;3.88;;;1.38;;
20038;SDS011;21737;42.868;25.320;2024-01-11T03:43:37;2.13;;;1.02;;
20038;SDS011;21737;42.868;25.320;2024-01-11T03:46:03;3.15;;;1.40;;
20038;SDS011;21737;42.868;25.320;2024-01-11T03:48:30;4.55;;;2.67;;
20038;SDS011;21737;42.868;25.320;2024-01-11T03:50:56;3.78;;;1.95;;
20038;SDS011;21737;42.868;25.320;2024-01-11T03:53:21;5.38;;;1.73;;
20038;SDS011;21737;42.868;25.320;2024-01-11T03:55:47;1.77;;;0.82;;
20038;SDS011;21737;42.868;25.320;2024-01-11T03:58:14;13.00;;;2.50;;
20038;SDS011;21737;42.868;25.320;2024-01-11T04:00:40;4.15;;;1.80;;
20038;SDS011;21737;42.868;25.320;2024-01-11T04:03:06;3.05;;;1.42;;
20038;SDS011;21737;42.868;25.320;2024-01-11T04:05:33;5.03;;;2.60;;
20038;SDS011;21737;42.868;25.320;2024-01-11T04:08:03;3.63;;;1.55;;
20038;SDS011;21737;42.868;25.320;2024-01-11T04:10:30;6.13;;;2.42;;
20038;SDS011;21737;42.868;25.320;2024-01-11T04:12:56;8.13;;;2.80;;
20038;SDS011;21737;42.868;25.320;2024-01-11T04:15:22;2.03;;;0.75;;
20038;SDS011;21737;42.868;25.320;2024-01-11T04:17:48;4.93;;;1.75;;
20038;SDS011;21737;42.868;25.320;2024-01-11T04:20:14;4.82;;;2.17;;
20038;SDS011;21737;42.868;25.320;2024-01-11T04:22:40;7.63;;;2.47;;
20038;SDS011;21737;42.868;25.320;2024-01-11T04:25:06;6.60;;;2.50;;
20038;SDS011;21737;42.868;25.320;2024-01-11T04:27:32;2.38;;;1.05;;
20038;SDS011;21737;42.868;25.320;2024-01-11T04:29:58;7.07;;;2.45;;
20038;SDS011;21737;42.868;25.320;2024-01-11T04:32:24;5.53;;;2.25;;
20038;SDS011;21737;42.868;25.320;2024-01-11T04:34:50;5.07;;;2.15;;
20038;SDS011;21737;42.868;25.320;2024-01-11T04:37:16;2.28;;;0.95;;
20038;SDS011;21737;42.868;25.320;2024-01-11T04:39:41;3.35;;;1.77;;
20038;SDS011;21737;42.868;25.320;2024-01-11T04:42:07;6.40;;;1.60;;
20038;SDS011;21737;42.868;25.320;2024-01-11T04:44:33;11.23;;;3.00;;
20038;SDS011;21737;42.868;25.320;2024-01-11T04:46:59;4.00;;;2.53;;
20038;SDS011;21737;42.868;25.320;2024-01-11T04:49:25;5.75;;;1.42;;
20038;SDS011;21737;42.868;25.320;2024-01-11T04:51:51;3.40;;;1.55;;
20038;SDS011;21737;42.868;25.320;2024-01-11T04:54:17;3.63;;;1.92;;
20038;SDS011;21737;42.868;25.320;2024-01-11T04:56:43;2.22;;;1.40;;
20038;SDS011;21737;42.868;25.320;2024-01-11T04:59:09;4.07;;;2.30;;
20038;SDS011;21737;42.868;25.320;2024-01-11T05:01:35;2.72;;;0.85;;
20038;SDS011;21737;42.868;25.320;2024-01-11T05:04:01;2.97;;;2.30;;
20038;SDS011;21737;42.868;25.320;2024-01-11T05:06:27;7.20;;;2.47;;
20038;SDS011;21737;42.868;25.320;2024-01-11T05:08:53;4.47;;;1.25;;
20038;SDS011;21737;42.868;25.320;2024-01-11T05:11:20;8.85;;;3.78;;
20038;SDS011;21737;42.868;25.320;2024-01-11T05:13:47;2.88;;;1.10;;
20038;SDS011;21737;42.868;25.320;2024-01-11T05:16:26;5.00;;;2.45;;
20038;SDS011;21737;42.868;25.320;2024-01-11T05:18:56;7.93;;;3.35;;
20038;SDS011;21737;42.868;25.320;2024-01-11T05:21:22;2.55;;;1.40;;
20038;SDS011;21737;42.868;25.320;2024-01-11T05:23:49;5.32;;;2.78;;
20038;SDS011;21737;42.868;25.320;2024-01-11T05:26:16;5.15;;;2.63;;
20038;SDS011;21737;42.868;25.320;2024-01-11T05:28:50;8.85;;;3.80;;
20038;SDS011;21737;42.868;25.320;2024-01-11T05:31:17;17.50;;;6.65;;
20038;SDS011;21737;42.868;25.320;2024-01-11T05:33:44;7.03;;;2.75;;
20038;SDS011;21737;42.868;25.320;2024-01-11T05:36:10;7.03;;;3.65;;
20038;SDS011;21737;42.868;25.320;2024-01-11T05:38:37;4.78;;;2.30;;
20038;SDS011;21737;42.868;25.320;2024-01-11T05:41:05;5.85;;;2.65;;
20038;SDS011;21737;42.868;25.320;2024-01-11T05:43:31;5.13;;;2.58;;
20038;SDS011;21737;42.868;25.320;2024-01-11T05:45:57;7.47;;;3.05;;
20038;SDS011;21737;42.868;25.320;2024-01-11T05:48:23;10.75;;;2.63;;
20038;SDS011;21737;42.868;25.320;2024-01-11T05:50:51;5.38;;;1.88;;
20038;SDS011;21737;42.868;25.320;2024-01-11T05:53:17;6.55;;;2.72;;
20038;SDS011;21737;42.868;25.320;2024-01-11T05:55:46;12.70;;;4.00;;
20038;SDS011;21737;42.868;25.320;2024-01-11T05:58:12;8.60;;;3.40;;
20038;SDS011;21737;42.868;25.320;2024-01-11T06:00:38;4.32;;;1.95;;
20038;SDS011;21737;42.868;25.320;2024-01-11T06:03:17;4.53;;;1.50;;
20038;SDS011;21737;42.868;25.320;2024-01-11T06:05:43;6.15;;;1.98;;
20038;SDS011;21737;42.868;25.320;2024-01-11T06:08:09;5.57;;;2.28;;
20038;SDS011;21737;42.868;25.320;2024-01-11T06:10:35;8.73;;;2.75;;
20038;SDS011;21737;42.868;25.320;2024-01-11T06:13:01;8.25;;;3.90;;
20038;SDS011;21737;42.868;25.320;2024-01-11T06:15:28;3.15;;;1.92;;
20038;SDS011;21737;42.868;25.320;2024-01-11T06:17:54;6.55;;;2.72;;
20038;SDS011;21737;42.868;25.320;2024-01-11T06:20:21;17.70;;;4.47;;
20038;SDS011;21737;42.868;25.320;2024-01-11T06:22:49;9.13;;;4.82;;
20038;SDS011;21737;42.868;25.320;2024-01-11T06:25:15;5.88;;;2.72;;
20038;SDS011;21737;42.868;25.320;2024-01-11T06:27:42;11.00;;;4.72;;
20038;SDS011;21737;42.868;25.320;2024-01-11T06:30:09;3.00;;;2.47;;
20038;SDS011;21737;42.868;25.320;2024-01-11T06:32:42;14.82;;;6.05;;
20038;SDS011;21737;42.868;25.320;2024-01-11T06:35:08;20.98;;;8.10;;
20038;SDS011;21737;42.868;25.320;2024-01-11T06:37:34;11.52;;;6.10;;
20038;SDS011;21737;42.868;25.320;2024-01-11T06:40:00;10.20;;;4.22;;
20038;SDS011;21737;42.868;25.320;2024-01-11T06:42:26;16.20;;;7.95;;
20038;SDS011;21737;42.868;25.320;2024-01-11T06:44:52;9.93;;;3.38;;
20038;SDS011;21737;42.868;25.320;2024-01-11T06:47:18;9.88;;;5.15;;
20038;SDS011;21737;42.868;25.320;2024-01-11T06:49:44;3.10;;;2.05;;
20038;SDS011;21737;42.868;25.320;2024-01-11T06:52:11;4.72;;;2.28;;
20038;SDS011;21737;42.868;25.320;2024-01-11T06:54:39;12.25;;;4.93;;
20038;SDS011;21737;42.868;25.320;2024-01-11T06:57:05;12.10;;;4.28;;
20038;SDS011;21737;42.868;25.320;2024-01-11T06:59:31;13.23;;;6.72;;
20038;SDS011;21737;42.868;25.320;2024-01-11T07:01:57;2.45;;;1.42;;
20038;SDS011;21737;42.868;25.320;2024-01-11T07:04:23;9.68;;;3.80;;
20038;SDS011;21737;42.868;25.320;2024-01-11T07:06:49;8.15;;;3.25;;
20038;SDS011;21737;42.868;25.320;2024-01-11T07:09:17;10.23;;;6.10;;
20038;SDS011;21737;42.868;25.320;2024-01-11T07:11:49;10.75;;;5.35;;
20038;SDS011;21737;42.868;25.320;2024-01-11T07:14:15;12.13;;;6.35;;
20038;SDS011;21737;42.868;25.320;2024-01-11T07:16:41;11.05;;;5.00;;
20038;SDS011;21737;42.868;25.320;2024-01-11T07:19:22;9.88;;;3.35;;
20038;SDS011;21737;42.868;25.320;2024-01-11T07:21:49;3.67;;;2.83;;
20038;SDS011;21737;42.868;25.320;2024-01-11T07:24:14;4.82;;;1.75;;
20038;SDS011;21737;42.868;25.320;2024-01-11T07:26:40;14.50;;;6.30;;
20038;SDS011;21737;42.868;25.320;2024-01-11T07:29:07;11.30;;;6.50;;
20038;SDS011;21737;42.868;25.320;2024-01-11T07:31:34;5.72;;;3.92;;
20038;SDS011;21737;42.868;25.320;2024-01-11T07:34:01;3.28;;;3.00;;
20038;SDS011;21737;42.868;25.320;2024-01-11T07:36:27;9.82;;;5.70;;
20038;SDS011;21737;42.868;25.320;2024-01-11T07:38:53;23.10;;;11.98;;
20038;SDS011;21737;42.868;25.320;2024-01-11T07:41:21;33.63;;;12.07;;
20038;SDS011;21737;42.868;25.320;2024-01-11T07:43:47;18.63;;;7.82;;
20038;SDS011;21737;42.868;25.320;2024-01-11T07:46:14;13.75;;;4.95;;
20038;SDS011;21737;42.868;25.320;2024-01-11T07:48:41;25.25;;;9.70;;
20038;SDS011;21737;42.868;25.320;2024-01-11T07:51:07;9.80;;;5.82;;
20038;SDS011;21737;42.868;25.320;2024-01-11T07:53:33;22.73;;;10.05;;
20038;SDS011;21737;42.868;25.320;2024-01-11T07:56:00;25.13;;;11.77;;
20038;SDS011;21737;42.868;25.320;2024-01-11T07:58:29;34.78;;;12.38;;
20038;SDS011;21737;42.868;25.320;2024-01-11T08:00:55;17.40;;;8.57;;
20038;SDS011;21737;42.868;25.320;2024-01-11T08:03:21;15.80;;;8.77;;
20038;SDS011;21737;42.868;25.320;2024-01-11T08:05:47;27.83;;;14.40;;
20038;SDS011;21737;42.868;25.320;2024-01-11T08:08:16;10.52;;;6.50;;
20038;SDS011;21737;42.868;25.320;2024-01-11T08:10:45;14.50;;;7.03;;
20038;SDS011;21737;42.868;25.320;2024-01-11T08:13:11;18.02;;;8.70;;
20038;SDS011;21737;42.868;25.320;2024-01-11T08:15:40;33.90;;;15.05;;
20038;SDS011;21737;42.868;25.320;2024-01-11T08:18:07;53.97;;;21.65;;
20038;SDS011;21737;42.868;25.320;2024-01-11T08:20:45;49.97;;;25.38;;
20038;SDS011;21737;42.868;25.320;2024-01-11T08:23:14;27.92;;;13.50;;
20038;SDS011;21737;42.868;25.320;2024-01-11T08:25:43;32.30;;;17.92;;
20038;SDS011;21737;42.868;25.320;2024-01-11T08:28:12;35.97;;;17.02;;
20038;SDS011;21737;42.868;25.320;2024-01-11T08:30:39;27.20;;;14.65;;
20038;SDS011;21737;42.868;25.320;2024-01-11T08:33:04;35.63;;;16.45;;
20038;SDS011;21737;42.868;25.320;2024-01-11T08:35:30;30.90;;;14.80;;
20038;SDS011;21737;42.868;25.320;2024-01-11T08:37:57;34.55;;;16.45;;
20038;SDS011;21737;42.868;25.320;2024-01-11T08:40:28;36.78;;;17.63;;
20038;SDS011;21737;42.868;25.320;2024-01-11T08:42:56;40.00;;;19.00;;
20038;SDS011;21737;42.868;25.320;2024-01-11T08:45:23;32.65;;;14.50;;
20038;SDS011;21737;42.868;25.320;2024-01-11T08:47:50;31.63;;;15.40;;
20038;SDS011;21737;42.868;25.320;2024-01-11T08:50:17;26.98;;;12.85;;
20038;SDS011;21737;42.868;25.320;2024-01-11T08:52:44;27.33;;;13.43;;
20038;SDS011;21737;42.868;25.320;2024-01-11T08:57:49;35.85;;;15.15;;
20038;SDS011;21737;42.868;25.320;2024-01-11T09:03:12;29.65;;;13.80;;
20038;SDS011;21737;42.868;25.320;2024-01-11T09:05:40;25.63;;;13.07;;
20038;SDS011;21737;42.868;25.320;2024-01-11T09:08:06;24.80;;;11.85;;
20038;SDS011;21737;42.868;25.320;2024-01-11T09:10:33;12.18;;;7.88;;
20038;SDS011;21737;42.868;25.320;2024-01-11T09:13:00;16.70;;;7.95;;
20038;SDS011;21737;42.868;25.320;2024-01-11T09:15:25;21.05;;;10.52;;
20038;SDS011;21737;42.868;25.320;2024-01-11T09:17:58;20.77;;;10.57;;
20038;SDS011;21737;42.868;25.320;2024-01-11T09:20:28;28.73;;;13.48;;
20038;SDS011;21737;42.868;25.320;2024-01-11T09:25:31;19.10;;;10.20;;
20038;SDS011;21737;42.868;25.320;2024-01-11T09:28:00;44.08;;;23.42;;
20038;SDS011;21737;42.868;25.320;2024-01-11T09:30:27;24.25;;;14.60;;
20038;SDS011;21737;42.868;25.320;2024-01-11T09:32:53;19.15;;;11.25;;
20038;SDS011;21737;42.868;25.320;2024-01-11T09:35:19;21.17;;;11.90;;
20038;SDS011;21737;42.868;25.320;2024-01-11T09:37:45;21.73;;;9.98;;
20038;SDS011;21737;42.868;25.320;2024-01-11T09:40:12;19.58;;;10.50;;
20038;SDS011;21737;42.868;25.320;2024-01-11T09:42:38;16.85;;;8.88;;
20038;SDS011;21737;42.868;25.320;2024-01-11T09:45:07;21.08;;;12.13;;
20038;SDS011;21737;42.868;25.320;2024-01-11T09:47:46;17.98;;;9.35;;
20038;SDS011;21737;42.868;25.320;2024-01-11T09:50:16;18.55;;;11.10;;
20038;SDS011;21737;42.868;25.320;2024-01-11T09:52:45;18.25;;;10.65;;
20038;SDS011;21737;42.868;25.320;2024-01-11T09:55:18;24.67;;;12.52;;
20038;SDS011;21737;42.868;25.320;2024-01-11T09:57:45;32.28;;;17.70;;
20038;SDS011;21737;42.868;25.320;2024-01-11T10:00:16;22.73;;;11.82;;
20038;SDS011;21737;42.868;25.320;2024-01-11T10:05:24;20.45;;;11.50;;
20038;SDS011;21737;42.868;25.320;2024-01-11T10:07:51;21.95;;;11.65;;
20038;SDS011;21737;42.868;25.320;2024-01-11T10:10:17;20.80;;;10.90;;
20038;SDS011;21737;42.868;25.320;2024-01-11T10:12:44;19.85;;;8.25;;
20038;SDS011;21737;42.868;25.320;2024-01-11T10:15:10;20.00;;;10.20;;
20038;SDS011;21737;42.868;25.320;2024-01-11T10:17:42;17.98;;;7.07;;
20038;SDS011;21737;42.868;25.320;2024-01-11T10:20:13;15.90;;;8.15;;
20038;SDS011;21737;42.868;25.320;2024-01-11T10:22:44;27.38;;;12.07;;
20038;SDS011;21737;42.868;25.320;2024-01-11T10:25:13;66.07;;;30.08;;
20038;SDS011;21737;42.868;25.320;2024-01-11T10:27:41;16.88;;;10.68;;
20038;SDS011;21737;42.868;25.320;2024-01-11T10:30:10;19.58;;;10.05;;
20038;SDS011;21737;42.868;25.320;2024-01-11T10:32:46;9.60;;;4.20;;
20038;SDS011;21737;42.868;25.320;2024-01-11T10:35:13;4.05;;;2.10;;
20038;SDS011;21737;42.868;25.320;2024-01-11T10:37:40;14.27;;;7.53;;
20038;SDS011;21737;42.868;25.320;2024-01-11T10:40:08;6.63;;;3.25;;
20038;SDS011;21737;42.868;25.320;2024-01-11T10:42:42;4.70;;;2.78;;
20038;SDS011;21737;42.868;25.320;2024-01-11T10:47:42;6.32;;;1.70;;
20038;SDS011;21737;42.868;25.320;2024-01-11T10:52:42;9.20;;;3.28;;
20038;SDS011;21737;42.868;25.320;2024-01-11T10:55:13;5.90;;;2.78;;
20038;SDS011;21737;42.868;25.320;2024-01-11T11:00:13;8.63;;;3.92;;
20038;SDS011;21737;42.868;25.320;2024-01-11T11:02:40;3.10;;;0.95;;
20038;SDS011;21737;42.868;25.320;2024-01-11T11:05:08;3.17;;;1.33;;
20038;SDS011;21737;42.868;25.320;2024-01-11T11:07:37;5.32;;;2.92;;
20038;SDS011;21737;42.868;25.320;2024-01-11T11:10:05;6.95;;;2.67;;
20038;SDS011;21737;42.868;25.320;2024-01-11T11:12:33;5.82;;;3.42;;
20038;SDS011;21737;42.868;25.320;2024-01-11T11:15:03;3.03;;;1.50;;
20038;SDS011;21737;42.868;25.320;2024-01-11T11:17:31;4.03;;;1.80;;
20038;SDS011;21737;42.868;25.320;2024-01-11T11:19:58;7.72;;;2.63;;
20038;SDS011;21737;42.868;25.320;2024-01-11T11:22:27;4.57;;;2.53;;
20038;SDS011;21737;42.868;25.320;2024-01-11T11:25:11;11.13;;;4.80;;
20038;SDS011;21737;42.868;25.320;2024-01-11T11:27:50;9.60;;;4.95;;
20038;SDS011;21737;42.868;25.320;2024-01-11T11:30:18;5.38;;;2.53;;
20038;SDS011;21737;42.868;25.320;2024-01-11T11:32:45;7.65;;;3.42;;
20038;SDS011;21737;42.868;25.320;2024-01-11T11:35:11;3.13;;;1.50;;
20038;SDS011;21737;42.868;25.320;2024-01-11T11:37:40;3.35;;;1.58;;
20038;SDS011;21737;42.868;25.320;2024-01-11T11:40:09;10.73;;;4.70;;
20038;SDS011;21737;42.868;25.320;2024-01-11T11:42:40;2.50;;;1.05;;
20038;SDS011;21737;42.868;25.320;2024-01-11T11:45:08;6.45;;;1.95;;
20038;SDS011;21737;42.868;25.320;2024-01-11T11:47:37;15.98;;;4.75;;
20038;SDS011;21737;42.868;25.320;2024-01-11T11:50:05;6.80;;;3.28;;
20038;SDS011;21737;42.868;25.320;2024-01-11T11:52:39;4.85;;;1.67;;
20038;SDS011;21737;42.868;25.320;2024-01-11T11:55:09;2.25;;;1.02;;
20038;SDS011;21737;42.868;25.320;2024-01-11T11:57:36;4.88;;;1.63;;
20038;SDS011;21737;42.868;25.320;2024-01-11T12:00:03;3.83;;;1.75;;
20038;SDS011;21737;42.868;25.320;2024-01-11T12:02:39;4.60;;;1.70;;
20038;SDS011;21737;42.868;25.320;2024-01-11T12:05:06;1.45;;;0.90;;
20038;SDS011;21737;42.868;25.320;2024-01-11T12:07:33;4.32;;;1.63;;
20038;SDS011;21737;42.868;25.320;2024-01-11T12:10:00;9.73;;;3.28;;
20038;SDS011;21737;42.868;25.320;2024-01-11T12:12:29;4.65;;;1.67;;
20038;SDS011;21737;42.868;25.320;2024-01-11T12:14:56;7.47;;;2.78;;
20038;SDS011;21737;42.868;25.320;2024-01-11T12:17:24;51.95;;;17.77;;
20038;SDS011;21737;42.868;25.320;2024-01-11T12:19:51;16.20;;;5.30;;
20038;SDS011;21737;42.868;25.320;2024-01-11T12:22:18;14.27;;;5.90;;
20038;SDS011;21737;42.868;25.320;2024-01-11T12:24:45;9.05;;;3.88;;
20038;SDS011;21737;42.868;25.320;2024-01-11T12:27:12;8.25;;;3.17;;
20038;SDS011;21737;42.868;25.320;2024-01-11T12:29:38;6.70;;;2.20;;
20038;SDS011;21737;42.868;25.320;2024-01-11T12:32:07;5.38;;;1.70;;
20038;SDS011;21737;42.868;25.320;2024-01-11T12:34:37;4.78;;;1.23;;
20038;SDS011;21737;42.868;25.320;2024-01-11T12:37:05;8.35;;;2.42;;
20038;SDS011;21737;42.868;25.320;2024-01-11T12:39:33;3.45;;;1.65;;
20038;SDS011;21737;42.868;25.320;2024-01-11T12:41:58;8.05;;;2.50;;
20038;SDS011;21737;42.868;25.320;2024-01-11T12:44:24;1.70;;;1.13;;
20038;SDS011;21737;42.868;25.320;2024-01-11T12:46:51;6.25;;;3.63;;
20038;SDS011;21737;42.868;25.320;2024-01-11T12:49:18;6.22;;;2.83;;
20038;SDS011;21737;42.868;25.320;2024-01-11T12:51:44;6.18;;;3.83;;
20038;SDS011;21737;42.868;25.320;2024-01-11T12:54:13;6.55;;;3.05;;
20038;SDS011;21737;42.868;25.320;2024-01-11T12:56:45;8.15;;;3.67;;
20038;SDS011;21737;42.868;25.320;2024-01-11T12:59:11;8.40;;;2.78;;
20038;SDS011;21737;42.868;25.320;2024-01-11T13:01:38;7.80;;;3.60;;
20038;SDS011;21737;42.868;25.320;2024-01-11T13:04:05;8.38;;;3.05;;
20038;SDS011;21737;42.868;25.320;2024-01-11T13:06:35;8.75;;;3.20;;
20038;SDS011;21737;42.868;25.320;2024-01-11T13:09:01;7.88;;;2.53;;
20038;SDS011;21737;42.868;25.320;2024-01-11T13:11:29;10.07;;;3.00;;
20038;SDS011;21737;42.868;25.320;2024-01-11T13:14:02;7.93;;;2.75;;
20038;SDS011;21737;42.868;25.320;2024-01-11T13:16:33;2.50;;;1.58;;
20038;SDS011;21737;42.868;25.320;2024-01-11T13:19:00;4.95;;;1.45;;
20038;SDS011;21737;42.868;25.320;2024-01-11T13:21:26;7.47;;;2.92;;
20038;SDS011;21737;42.868;25.320;2024-01-11T13:23:52;6.75;;;3.13;;
20038;SDS011;21737;42.868;25.320;2024-01-11T13:26:20;7.03;;;3.10;;
20038;SDS011;21737;42.868;25.320;2024-01-11T13:28:48;3.95;;;1.08;;
20038;SDS011;21737;42.868;25.320;2024-01-11T13:31:14;4.82;;;2.03;;
20038;SDS011;21737;42.868;25.320;2024-01-11T13:33:42;5.57;;;1.75;;
20038;SDS011;21737;42.868;25.320;2024-01-11T13:36:09;9.73;;;4.03;;
20038;SDS011;21737;42.868;25.320;2024-01-11T13:38:35;5.07;;;3.30;;
20038;SDS011;21737;42.868;25.320;2024-01-11T13:41:01;9.20;;;3.08;;
20038;SDS011;21737;42.868;25.320;2024-01-11T13:43:27;8.65;;;4.47;;
20038;SDS011;21737;42.868;25.320;2024-01-11T13:45:53;12.00;;;5.13;;
20038;SDS011;21737;42.868;25.320;2024-01-11T13:48:23;20.67;;;8.13;;
20038;SDS011;21737;42.868;25.320;2024-01-11T13:50:49;16.08;;;7.00;;
20038;SDS011;21737;42.868;25.320;2024-01-11T13:53:16;12.90;;;7.22;;
20038;SDS011;21737;42.868;25.320;2024-01-11T13:55:42;15.10;;;8.05;;
20038;SDS011;21737;42.868;25.320;2024-01-11T13:58:09;16.23;;;6.97;;
20038;SDS011;21737;42.868;25.320;2024-01-11T14:00:35;15.25;;;7.18;;
20038;SDS011;21737;42.868;25.320;2024-01-11T14:03:02;27.15;;;12.07;;
20038;SDS011;21737;42.868;25.320;2024-01-11T14:05:30;24.67;;;11.00;;
20038;SDS011;21737;42.868;25.320;2024-01-11T14:07:58;20.33;;;11.30;;
20038;SDS011;21737;42.868;25.320;2024-01-11T14:10:26;12.75;;;5.32;;
20038;SDS011;21737;42.868;25.320;2024-01-11T14:12:53;8.23;;;4.45;;
20038;SDS011;21737;42.868;25.320;2024-01-11T14:15:20;15.70;;;7.97;;
20038;SDS011;21737;42.868;25.320;2024-01-11T14:17:46;11.32;;;5.82;;
20038;SDS011;21737;42.868;25.320;2024-01-11T14:20:13;9.18;;;4.72;;
20038;SDS011;21737;42.868;25.320;2024-01-11T14:22:42;13.82;;;8.55;;
20038;SDS011;21737;42.868;25.320;2024-01-11T14:25:14;22.83;;;10.25;;
20038;SDS011;21737;42.868;25.320;2024-01-11T14:27:42;28.15;;;13.75;;
20038;SDS011;21737;42.868;25.320;2024-01-11T14:30:10;25.95;;;10.02;;
20038;SDS011;21737;42.868;25.320;2024-01-11T14:32:37;21.63;;;6.28;;
20038;SDS011;21737;42.868;25.320;2024-01-11T14:35:04;14.57;;;8.00;;
20038;SDS011;21737;42.868;25.320;2024-01-11T14:37:35;19.88;;;9.07;;
20038;SDS011;21737;42.868;25.320;2024-01-11T14:40:03;17.05;;;7.95;;
20038;SDS011;21737;42.868;25.320;2024-01-11T14:42:33;28.33;;;10.90;;
20038;SDS011;21737;42.868;25.320;2024-01-11T14:44:59;16.88;;;8.20;;
20038;SDS011;21737;42.868;25.320;2024-01-11T14:47:25;27.70;;;11.20;;